If you wish to contribute or participate in the discussions about articles you are invited to join SKYbrary as a registered user

 Actions

LFAQ

From SKYbrary Wiki

Airport
ICAO: LFAQ
Summary
Name Albert-Bray Airport
Region Europe
Territory France FR.gif
Location , Picardie
Serving Albert
Elevation 110.947 m
364 ft
Type small airport
Coordinates 49° 58' 17.5116", 2° 41' 51.5796"
Runways
Designator Length Width Surface ROPS
9/27 1170 m3,838.583 ft 25 m82.021 ft ASP /


METAR
Observation LFAQ 242230Z AUTO 06015KT CAVOK M01/M07 Q1021
Station BRAY
Date/Time 24 February 2018 22:30:00
Wind direction 60°
Wind speed 15 kts
Lowest cloud amount clouds and visibility OK
Temperature
Dew point
Humidity 63%
QNH 1021 hPa
Weather condition n/a